createdAt,value
2019-05-26T00:00:11.651Z,7.17
2019-05-26T00:02:57.671Z,6.30
2019-05-26T00:05:43.607Z,6.53
2019-05-26T00:08:29.892Z,7.17
2019-05-26T00:11:16.170Z,7.27
2019-05-26T00:14:02.448Z,6.57
2019-05-26T00:16:48.523Z,6.77
2019-05-26T00:19:34.522Z,6.40
2019-05-26T00:22:20.434Z,6.57
2019-05-26T00:25:06.439Z,7.20
2019-05-26T00:27:52.881Z,7.17
2019-05-26T00:30:39.770Z,7.63
2019-05-26T00:33:26.070Z,7.00
2019-05-26T00:36:12.634Z,7.70
2019-05-26T00:38:58.950Z,7.40
2019-05-26T00:41:44.865Z,6.97
2019-05-26T00:44:32.401Z,7.37
2019-05-26T00:47:18.462Z,7.17
2019-05-26T00:50:06.622Z,7.60
2019-05-26T00:52:56.356Z,7.27
2019-05-26T00:55:41.179Z,7.57
2019-05-26T00:58:27.299Z,8.17
2019-05-26T01:01:13.342Z,8.17
2019-05-26T01:03:59.631Z,7.73
2019-05-26T01:06:49.958Z,8.03
2019-05-26T01:09:42.329Z,8.70
2019-05-26T01:12:28.323Z,8.17
2019-05-26T01:15:14.212Z,8.17
2019-05-26T01:18:00.623Z,8.70
2019-05-26T01:20:46.905Z,8.77
2019-05-26T01:23:32.986Z,9.37
2019-05-26T01:26:19.008Z,9.23
2019-05-26T01:29:04.991Z,8.90
2019-05-26T01:31:51.054Z,9.90
2019-05-26T01:34:37.075Z,9.10
2019-05-26T01:37:25.369Z,10.17
2019-05-26T01:40:11.462Z,9.77
2019-05-26T01:42:57.780Z,9.63
2019-05-26T01:45:43.921Z,11.00
2019-05-26T01:48:30.220Z,10.47
2019-05-26T01:51:16.416Z,10.00
2019-05-26T01:54:10.971Z,10.43
2019-05-26T01:56:57.185Z,11.27
2019-05-26T01:59:43.504Z,12.13
2019-05-26T02:02:29.809Z,11.87
2019-05-26T02:05:16.104Z,11.50
2019-05-26T02:08:02.441Z,12.50
2019-05-26T02:10:48.634Z,12.20
2019-05-26T02:13:37.559Z,13.07
2019-05-26T02:16:23.622Z,14.10
2019-05-26T02:19:09.608Z,13.27
2019-05-26T02:21:55.868Z,14.90
2019-05-26T02:24:41.863Z,15.80
2019-05-26T02:27:28.218Z,15.90
2019-05-26T02:30:14.223Z,16.63
2019-05-26T02:33:00.613Z,17.57
2019-05-26T02:35:46.703Z,18.20
2019-05-26T02:38:33.043Z,18.17
2019-05-26T02:41:19.275Z,19.87
2019-05-26T02:44:06.172Z,20.53
2019-05-26T02:46:52.190Z,18.83
2019-05-26T02:49:38.669Z,19.87
2019-05-26T02:52:24.795Z,20.53
2019-05-26T02:55:11.052Z,21.73
2019-05-26T02:57:57.288Z,22.23
2019-05-26T03:00:46.141Z,21.73
2019-05-26T03:03:32.655Z,22.57
2019-05-26T03:06:19.784Z,24.23
2019-05-26T03:09:21.730Z,23.87
2019-05-26T03:11:53.770Z,24.47
2019-05-26T03:14:42.978Z,24.73
2019-05-26T03:17:28.875Z,24.47
2019-05-26T03:20:14.722Z,26.27
2019-05-26T03:23:00.982Z,24.77
2019-05-26T03:25:46.844Z,24.53
2019-05-26T03:28:35.739Z,26.40
2019-05-26T03:31:21.688Z,25.73
2019-05-26T03:34:07.923Z,26.03
2019-05-26T03:36:55.987Z,25.97
2019-05-26T03:39:46.371Z,26.83
2019-05-26T03:42:33.062Z,24.57
2019-05-26T03:45:19.494Z,26.33
2019-05-26T03:48:06.584Z,25.53
2019-05-26T03:50:53.016Z,24.50
2019-05-26T03:53:39.250Z,24.53
2019-05-26T03:56:25.506Z,24.53
2019-05-26T03:59:11.883Z,24.20
2019-05-26T04:01:58.110Z,24.67
2019-05-26T04:04:45.606Z,26.03
2019-05-26T04:07:31.518Z,24.97
2019-05-26T04:10:18.211Z,25.00
2019-05-26T04:13:04.434Z,25.67
2019-05-26T04:15:50.744Z,25.83
2019-05-26T04:18:36.815Z,25.73
2019-05-26T04:21:22.979Z,25.13
2019-05-26T04:24:09.201Z,28.07
2019-05-26T04:26:55.344Z,27.20
2019-05-26T04:29:41.436Z,28.17
2019-05-26T04:32:27.694Z,27.80
2019-05-26T04:35:16.957Z,29.03
2019-05-26T04:38:03.064Z,28.30
2019-05-26T04:40:49.073Z,28.17
2019-05-26T04:43:41.161Z,28.33
2019-05-26T04:46:27.174Z,28.93
2019-05-26T04:49:13.169Z,28.60
2019-05-26T04:52:00.183Z,27.83
2019-05-26T04:54:49.256Z,27.90
2019-05-26T04:57:38.611Z,27.13
2019-05-26T05:00:24.662Z,28.37
2019-05-26T05:03:12.800Z,28.37
2019-05-26T05:05:58.995Z,29.03
2019-05-26T05:08:45.152Z,30.50
2019-05-26T05:11:31.232Z,31.77
2019-05-26T05:14:17.284Z,32.43
2019-05-26T05:17:03.684Z,35.17
2019-05-26T05:19:49.621Z,32.40
2019-05-26T05:22:35.684Z,32.43
2019-05-26T05:25:24.680Z,32.57
2019-05-26T05:28:14.133Z,33.23
2019-05-26T05:31:00.664Z,32.90
2019-05-26T05:33:49.665Z,34.40
2019-05-26T05:36:35.846Z,35.63
2019-05-26T05:39:25.033Z,34.50
2019-05-26T05:42:10.984Z,33.93
2019-05-26T05:44:57.420Z,35.00
2019-05-26T05:47:43.874Z,33.60
2019-05-26T05:50:30.059Z,36.37
2019-05-26T05:53:19.652Z,35.50
2019-05-26T05:56:05.796Z,33.90
2019-05-26T05:58:53.797Z,33.80
2019-05-26T06:01:39.715Z,34.67
2019-05-26T06:04:25.792Z,36.07
2019-05-26T06:07:13.406Z,33.37
2019-05-26T06:10:00.927Z,33.80
2019-05-26T06:12:49.281Z,32.50
2019-05-26T06:15:36.028Z,32.50
2019-05-26T06:18:22.212Z,30.93
2019-05-26T06:21:08.558Z,31.23
2019-05-26T06:23:55.242Z,30.60
2019-05-26T06:26:41.434Z,29.03
2019-05-26T06:29:27.697Z,29.40
2019-05-26T06:32:14.937Z,30.43
2019-05-26T06:35:01.869Z,27.97
2019-05-26T06:37:51.083Z,28.87
2019-05-26T06:40:36.942Z,27.60
2019-05-26T06:43:22.903Z,27.80
2019-05-26T06:46:08.952Z,27.03
2019-05-26T06:48:54.896Z,27.10
2019-05-26T06:51:41.139Z,26.50
2019-05-26T06:54:27.263Z,26.10
2019-05-26T06:57:13.192Z,26.13
2019-05-26T06:59:59.489Z,25.73
2019-05-26T07:02:45.811Z,25.40
2019-05-26T07:05:31.661Z,24.53
2019-05-26T07:08:17.831Z,24.23
2019-05-26T07:11:03.827Z,24.70
2019-05-26T07:13:50.077Z,23.37
2019-05-26T07:16:38.380Z,22.03
2019-05-26T07:19:23.992Z,22.23
2019-05-26T07:22:09.950Z,21.37
2019-05-26T07:24:56.816Z,22.67
2019-05-26T07:27:42.945Z,21.70
2019-05-26T07:30:29.391Z,22.03
2019-05-26T07:33:15.488Z,22.43
2019-05-26T07:36:03.537Z,21.00
2019-05-26T07:38:50.148Z,20.70
2019-05-26T07:41:36.543Z,21.23
2019-05-26T07:44:22.727Z,21.33
2019-05-26T07:47:08.763Z,20.20
2019-05-26T07:49:55.667Z,20.20
2019-05-26T07:52:41.665Z,19.30
2019-05-26T07:55:27.937Z,16.53
2019-05-26T07:58:14.015Z,13.83
2019-05-26T08:01:00.047Z,12.73
2019-05-26T08:03:46.101Z,12.57
2019-05-26T08:06:32.359Z,13.03
2019-05-26T08:09:18.549Z,13.00
2019-05-26T08:12:25.053Z,13.77
2019-05-26T08:14:59.182Z,13.17
2019-05-26T08:17:48.375Z,13.67
2019-05-26T08:20:34.625Z,12.10
2019-05-26T08:23:20.964Z,11.77
2019-05-26T08:26:07.270Z,10.40
2019-05-26T08:28:54.935Z,10.17
2019-05-26T08:31:41.657Z,10.87
2019-05-26T08:34:27.732Z,10.27
2019-05-26T08:37:13.787Z,9.43
2019-05-26T08:40:18.212Z,10.80
2019-05-26T08:43:04.240Z,8.90
2019-05-26T08:45:50.290Z,9.00
2019-05-26T08:48:36.309Z,8.10
2019-05-26T08:51:22.527Z,8.30
2019-05-26T08:54:11.531Z,7.97
2019-05-26T08:56:57.538Z,6.77
2019-05-26T08:59:43.861Z,6.43
2019-05-26T09:02:30.212Z,6.30
2019-05-26T09:05:16.560Z,6.93
2019-05-26T09:08:08.114Z,6.30
2019-05-26T09:10:53.561Z,5.60
2019-05-26T09:13:39.602Z,4.93
2019-05-26T09:16:25.855Z,5.93
2019-05-26T09:19:12.171Z,4.60
2019-05-26T09:21:58.151Z,4.67
2019-05-26T09:24:44.339Z,4.57
2019-05-26T09:27:30.439Z,3.70
2019-05-26T09:30:17.331Z,5.20
2019-05-26T09:33:03.598Z,4.13
2019-05-26T09:35:53.103Z,4.10
2019-05-26T09:38:39.110Z,3.93
2019-05-26T09:41:25.154Z,3.90
2019-05-26T09:44:11.209Z,3.97
2019-05-26T09:46:57.144Z,3.37
2019-05-26T09:49:43.128Z,3.00
2019-05-26T09:52:29.475Z,3.70
2019-05-26T09:55:15.727Z,2.90
2019-05-26T09:58:01.942Z,3.40
2019-05-26T10:00:47.858Z,3.33
2019-05-26T10:03:36.917Z,2.80
2019-05-26T10:06:23.568Z,3.40
2019-05-26T10:09:09.903Z,3.13
2019-05-26T10:11:56.233Z,2.57
2019-05-26T10:14:42.593Z,2.80
2019-05-26T10:17:29.099Z,3.10
2019-05-26T10:20:18.024Z,3.00
2019-05-26T10:23:04.753Z,2.33
2019-05-26T10:25:50.742Z,2.60
2019-05-26T10:28:36.986Z,2.90
2019-05-26T10:31:23.193Z,2.43
2019-05-26T10:34:09.365Z,2.77
2019-05-26T10:36:56.609Z,2.63
2019-05-26T10:39:44.990Z,2.77
2019-05-26T10:42:30.208Z,2.40
2019-05-26T10:45:17.009Z,2.73
2019-05-26T10:48:03.080Z,2.67
2019-05-26T10:50:49.454Z,2.60
2019-05-26T10:53:35.688Z,2.67
2019-05-26T10:56:22.140Z,2.80
2019-05-26T10:59:08.291Z,2.67
2019-05-26T11:01:54.365Z,2.83
2019-05-26T11:04:40.632Z,2.80
2019-05-26T11:07:27.039Z,3.27
2019-05-26T11:10:14.403Z,2.90
2019-05-26T11:13:00.946Z,2.93
2019-05-26T11:15:47.111Z,2.87
2019-05-26T11:18:33.684Z,2.83
2019-05-26T11:21:26.674Z,2.70
2019-05-26T11:24:13.590Z,2.93
2019-05-26T11:27:09.312Z,2.60
2019-05-26T11:29:47.986Z,3.20
2019-05-26T11:32:38.657Z,2.83
2019-05-26T11:35:28.233Z,2.90
2019-05-26T11:38:16.582Z,3.10
2019-05-26T11:41:02.545Z,3.20
2019-05-26T11:43:49.109Z,3.77
2019-05-26T11:46:36.602Z,3.23
2019-05-26T11:49:22.905Z,3.30
2019-05-26T11:52:10.254Z,3.53
2019-05-26T11:54:56.722Z,3.33
2019-05-26T11:57:43.093Z,3.27
2019-05-26T12:00:29.351Z,3.47
2019-05-26T12:03:16.973Z,3.33
2019-05-26T12:06:03.646Z,3.70
2019-05-26T12:08:50.079Z,3.40
2019-05-26T12:11:36.380Z,3.83
2019-05-26T12:14:34.388Z,3.70
2019-05-26T12:17:13.911Z,4.03
2019-05-26T12:20:04.885Z,3.50
2019-05-26T12:22:49.081Z,4.47
2019-05-26T12:25:35.321Z,3.63
2019-05-26T12:28:22.253Z,3.03
2019-05-26T12:31:08.711Z,3.47
2019-05-26T12:33:55.306Z,3.73
2019-05-26T12:36:42.143Z,5.43
2019-05-26T12:39:30.848Z,4.33
2019-05-26T12:42:17.341Z,4.00
2019-05-26T12:45:03.703Z,4.03
2019-05-26T12:47:49.858Z,4.30
2019-05-26T12:50:35.906Z,4.07
2019-05-26T12:53:23.179Z,4.03
2019-05-26T12:56:09.503Z,3.70
2019-05-26T12:58:56.164Z,4.07
2019-05-26T13:01:43.588Z,3.80
2019-05-26T13:04:29.687Z,3.97
2019-05-26T13:07:16.135Z,4.20
2019-05-26T13:10:02.594Z,3.73
2019-05-26T13:12:48.776Z,3.73
2019-05-26T13:15:34.934Z,3.47
2019-05-26T13:18:21.118Z,3.70
2019-05-26T13:21:07.591Z,3.60
2019-05-26T13:23:54.017Z,4.07
2019-05-26T13:26:40.382Z,4.60
2019-05-26T13:29:29.181Z,4.40
2019-05-26T13:32:15.475Z,3.83
2019-05-26T13:35:01.814Z,4.77
2019-05-26T13:37:50.107Z,4.33
2019-05-26T13:40:36.509Z,4.77
2019-05-26T13:43:22.738Z,3.93
2019-05-26T13:46:09.522Z,4.47
2019-05-26T13:48:55.718Z,4.07
2019-05-26T13:51:42.371Z,4.60
2019-05-26T13:54:28.402Z,3.97
2019-05-26T13:57:14.560Z,4.63
2019-05-26T14:00:00.867Z,3.80
2019-05-26T14:02:46.987Z,3.30
2019-05-26T14:05:33.288Z,3.43
2019-05-26T14:08:19.331Z,4.20
2019-05-26T14:11:05.514Z,3.83
2019-05-26T14:13:51.989Z,3.93
2019-05-26T14:16:38.235Z,3.50
2019-05-26T14:19:24.824Z,3.90
2019-05-26T14:22:11.140Z,3.83
2019-05-26T14:24:57.764Z,3.40
2019-05-26T14:27:43.912Z,3.80
2019-05-26T14:30:32.439Z,3.67
2019-05-26T14:33:18.896Z,4.27
2019-05-26T14:36:05.580Z,3.60
2019-05-26T14:38:52.372Z,3.67
2019-05-26T14:41:39.284Z,3.40
2019-05-26T14:44:25.266Z,3.17
2019-05-26T14:47:11.500Z,3.80
2019-05-26T14:49:57.482Z,3.43
2019-05-26T14:52:43.599Z,3.70
2019-05-26T14:55:29.568Z,3.60
2019-05-26T14:58:16.879Z,3.00
2019-05-26T15:01:03.254Z,3.10
2019-05-26T15:03:49.553Z,3.13
2019-05-26T15:06:35.818Z,3.23
2019-05-26T15:09:25.170Z,2.83
2019-05-26T15:12:09.913Z,2.90
2019-05-26T15:14:56.070Z,3.47
2019-05-26T15:17:42.178Z,3.30
2019-05-26T15:20:28.689Z,4.10
2019-05-26T15:23:15.454Z,3.90
2019-05-26T15:26:05.209Z,4.00
2019-05-26T15:28:49.292Z,5.20
2019-05-26T15:31:35.692Z,4.63
2019-05-26T15:34:21.819Z,4.33
2019-05-26T15:37:08.162Z,5.10
2019-05-26T15:39:54.165Z,3.77
2019-05-26T15:42:40.187Z,3.80
2019-05-26T15:45:28.216Z,3.87
2019-05-26T15:48:14.501Z,3.40
2019-05-26T15:51:00.676Z,7.07
2019-05-26T15:53:46.902Z,3.80
2019-05-26T15:56:32.871Z,3.43
2019-05-26T15:59:19.492Z,3.53
2019-05-26T16:02:05.585Z,5.63
2019-05-26T16:04:51.691Z,3.83
2019-05-26T16:07:38.438Z,3.90
2019-05-26T16:10:24.840Z,3.67
2019-05-26T16:13:11.113Z,4.50
2019-05-26T16:15:57.533Z,4.17
2019-05-26T16:18:46.644Z,3.70
2019-05-26T16:21:32.740Z,3.97
2019-05-26T16:24:19.325Z,3.60
2019-05-26T16:27:18.680Z,3.63
2019-05-26T16:29:54.514Z,5.00
2019-05-26T16:32:40.913Z,7.60
2019-05-26T16:35:27.730Z,4.43
2019-05-26T16:38:14.181Z,4.50
2019-05-26T16:41:00.610Z,3.93
2019-05-26T16:43:47.313Z,4.73
2019-05-26T16:46:33.826Z,3.50
2019-05-26T16:49:20.616Z,3.87
2019-05-26T16:52:06.662Z,7.70
2019-05-26T16:54:52.566Z,6.10
2019-05-26T16:57:38.652Z,3.60
2019-05-26T17:00:25.016Z,3.50
2019-05-26T17:03:11.316Z,4.03
2019-05-26T17:06:07.465Z,3.53
2019-05-26T17:08:45.774Z,3.93
2019-05-26T17:11:32.027Z,4.10
2019-05-26T17:14:18.168Z,3.70
2019-05-26T17:17:14.275Z,3.83
2019-05-26T17:19:53.023Z,3.60
2019-05-26T17:22:39.188Z,4.13
2019-05-26T17:25:25.416Z,4.33
2019-05-26T17:28:14.568Z,4.20
2019-05-26T17:31:00.950Z,3.90
2019-05-26T17:33:47.575Z,4.07
2019-05-26T17:36:33.815Z,4.20
2019-05-26T17:39:20.304Z,4.97
2019-05-26T17:42:06.473Z,3.97
2019-05-26T17:44:53.324Z,4.30
2019-05-26T17:47:39.730Z,4.43
2019-05-26T17:50:26.008Z,3.93
2019-05-26T17:53:12.078Z,5.30
2019-05-26T17:56:03.560Z,6.97
2019-05-26T17:58:49.623Z,3.90
2019-05-26T18:01:38.778Z,5.60
2019-05-26T18:04:24.877Z,4.37
2019-05-26T18:07:11.363Z,4.23
2019-05-26T18:09:59.562Z,4.30
2019-05-26T18:12:45.969Z,4.10
2019-05-26T18:15:33.202Z,7.27
2019-05-26T18:18:19.580Z,4.57
2019-05-26T18:21:06.078Z,6.07
2019-05-26T18:23:52.399Z,5.00
2019-05-26T18:26:39.092Z,4.70
2019-05-26T18:29:25.165Z,4.47
2019-05-26T18:32:11.575Z,4.30
2019-05-26T18:34:58.392Z,4.80
2019-05-26T18:37:44.390Z,4.17
2019-05-26T18:40:30.529Z,4.67
2019-05-26T18:43:16.937Z,4.57
2019-05-26T18:46:03.206Z,5.23
2019-05-26T18:48:49.661Z,4.43
2019-05-26T18:51:36.310Z,4.30
2019-05-26T18:54:23.427Z,4.73
2019-05-26T18:57:09.794Z,4.23
2019-05-26T18:59:56.167Z,4.27
2019-05-26T19:02:42.345Z,4.23
2019-05-26T19:05:33.667Z,4.13
2019-05-26T19:08:16.720Z,4.47
2019-05-26T19:11:03.313Z,4.40
2019-05-26T19:13:49.370Z,3.77
2019-05-26T19:16:35.608Z,4.43
2019-05-26T19:19:21.705Z,3.90
2019-05-26T19:22:08.291Z,4.17
2019-05-26T19:24:54.446Z,4.17
2019-05-26T19:27:40.594Z,4.50
2019-05-26T19:30:28.025Z,3.97
2019-05-26T19:33:14.384Z,5.50
2019-05-26T19:36:07.795Z,3.97
2019-05-26T19:38:50.643Z,3.70
2019-05-26T19:41:39.641Z,3.60
2019-05-26T19:44:28.694Z,4.03
2019-05-26T19:47:15.020Z,3.83
2019-05-26T19:50:01.301Z,3.57
2019-05-26T19:52:49.923Z,3.47
2019-05-26T19:55:35.486Z,3.60
2019-05-26T19:58:21.962Z,3.63
2019-05-26T20:01:08.669Z,3.13
2019-05-26T20:03:55.916Z,3.40
2019-05-26T20:06:45.021Z,3.70
2019-05-26T20:09:31.225Z,3.43
2019-05-26T20:12:17.784Z,3.67
2019-05-26T20:15:04.252Z,3.07
2019-05-26T20:17:50.632Z,3.67
2019-05-26T20:20:36.783Z,3.50
2019-05-26T20:23:22.826Z,3.67
2019-05-26T20:26:09.174Z,3.53
2019-05-26T20:28:55.667Z,3.43
2019-05-26T20:31:41.757Z,3.30
2019-05-26T20:34:27.762Z,3.50
2019-05-26T20:37:13.998Z,3.83
2019-05-26T20:40:00.071Z,3.83
2019-05-26T20:42:46.697Z,3.97
2019-05-26T20:45:33.213Z,4.43
2019-05-26T20:48:19.377Z,4.37
2019-05-26T20:51:05.822Z,4.07
2019-05-26T20:53:53.431Z,4.27
2019-05-26T20:56:39.493Z,4.23
2019-05-26T20:59:26.038Z,5.27
2019-05-26T21:02:12.431Z,5.13
2019-05-26T21:04:58.781Z,5.47
2019-05-26T21:07:45.338Z,5.40
2019-05-26T21:10:31.813Z,5.57
2019-05-26T21:13:17.914Z,5.60
2019-05-26T21:16:04.159Z,5.47
2019-05-26T21:18:50.266Z,5.90
2019-05-26T21:21:36.687Z,5.90
2019-05-26T21:24:23.233Z,5.40
2019-05-26T21:27:09.411Z,6.27
2019-05-26T21:29:55.733Z,6.27
2019-05-26T21:32:45.212Z,6.00
2019-05-26T21:35:32.062Z,6.03
2019-05-26T21:38:18.105Z,5.73
2019-05-26T21:41:10.712Z,6.13
2019-05-26T21:43:56.670Z,6.03
2019-05-26T21:46:44.217Z,5.53
2019-05-26T21:49:30.693Z,5.50
2019-05-26T21:52:17.173Z,6.20
2019-05-26T21:55:03.918Z,6.20
2019-05-26T21:57:50.688Z,5.90
2019-05-26T22:00:41.395Z,5.00
2019-05-26T22:03:27.418Z,4.73
2019-05-26T22:06:13.368Z,5.17
2019-05-26T22:08:59.377Z,4.47
2019-05-26T22:11:47.616Z,4.90
2019-05-26T22:14:36.772Z,4.90
2019-05-26T22:17:25.674Z,4.37
2019-05-26T22:20:11.901Z,4.50
2019-05-26T22:22:57.884Z,4.83
2019-05-26T22:25:43.838Z,4.63
2019-05-26T22:28:30.034Z,5.20
2019-05-26T22:31:16.148Z,5.23
2019-05-26T22:34:02.478Z,4.50
2019-05-26T22:36:48.828Z,4.47
2019-05-26T22:39:35.077Z,5.10
2019-05-26T22:42:23.871Z,4.60
2019-05-26T22:45:10.223Z,4.40
2019-05-26T22:47:56.272Z,4.77
2019-05-26T22:50:42.270Z,4.13
2019-05-26T22:53:29.178Z,4.47
2019-05-26T22:56:15.576Z,4.50
2019-05-26T22:59:02.588Z,4.30
2019-05-26T23:01:54.624Z,4.70
2019-05-26T23:04:40.744Z,4.90
2019-05-26T23:07:27.031Z,5.10
2019-05-26T23:10:13.149Z,4.87
2019-05-26T23:13:03.191Z,4.87
2019-05-26T23:15:49.130Z,4.77
2019-05-26T23:18:35.122Z,5.00
2019-05-26T23:21:28.194Z,4.57
2019-05-26T23:24:14.540Z,4.80
2019-05-26T23:27:00.683Z,5.10
2019-05-26T23:29:47.040Z,5.40
2019-05-26T23:32:33.787Z,5.20
2019-05-26T23:35:19.880Z,5.53
2019-05-26T23:38:08.923Z,4.57
2019-05-26T23:40:55.184Z,5.30
2019-05-26T23:43:43.892Z,4.80
2019-05-26T23:46:30.467Z,5.17
2019-05-26T23:49:16.541Z,5.40
2019-05-26T23:52:02.516Z,4.90
2019-05-26T23:54:51.486Z,5.30
2019-05-26T23:57:41.073Z,5.13
